Time;durP1;ratioP1;P1;durP2;ratioP2;P2;SDS_P1;SDS_P2;PMS_P1;PMS_P2;Temp;Humidity;BMP_temperature;BMP_pressure;BME280_temperature;BME280_humidity;BME280_pressure;Samples;Min_cycle;Max_cycle;Signal;HPM_P1;HPM_P2
2023/03/05 00:01:31;;;;;;;31.27;5.00;;;;;;;-0.63;100.00;100869.16;6212732;23;20025;-73
2023/03/05 00:03:58;;;;;;;27.48;4.13;;;;;;;-0.65;100.00;100866.56;6211669;23;20020;-72
2023/03/05 00:06:27;;;;;;;37.67;4.35;;;;;;;-0.60;100.00;100866.34;6211686;23;20028;-73
2023/03/05 00:08:57;;;;;;;27.45;4.90;;;;;;;-0.62;100.00;100855.03;6212356;23;20135;-73
2023/03/05 00:11:26;;;;;;;24.00;4.20;;;;;;;-0.76;100.00;100846.09;6212318;23;20141;-73
2023/03/05 00:13:54;;;;;;;25.10;4.85;;;;;;;-0.80;100.00;100849.84;6212125;23;20425;-73
2023/03/05 00:16:21;;;;;;;30.63;4.35;;;;;;;-0.75;100.00;100849.56;6211534;23;20031;-73
2023/03/05 00:18:48;;;;;;;28.80;4.03;;;;;;;-0.83;100.00;100842.09;6211026;23;20044;-73
2023/03/05 00:21:22;;;;;;;37.08;4.13;;;;;;;-0.92;100.00;100843.47;6211855;23;20025;-71
2023/03/05 00:23:49;;;;;;;36.22;5.25;;;;;;;-0.94;100.00;100840.06;6210579;23;20017;-73
2023/03/05 00:26:18;;;;;;;27.83;4.13;;;;;;;-0.90;100.00;100836.31;6208867;23;20029;-73
2023/03/05 00:28:48;;;;;;;35.55;4.72;;;;;;;-0.98;100.00;100829.78;6209208;23;20449;-72
2023/03/05 00:31:16;;;;;;;37.20;4.70;;;;;;;-0.97;100.00;100829.69;6208962;23;20026;-72
2023/03/05 00:33:43;;;;;;;30.55;4.80;;;;;;;-0.98;100.00;100820.09;6202642;23;20028;-72
2023/03/05 00:36:09;;;;;;;29.65;4.50;;;;;;;-1.11;100.00;100819.06;6211494;23;20025;-72
2023/03/05 00:38:36;;;;;;;25.13;4.50;;;;;;;-1.00;100.00;100816.69;6210331;23;20025;-73
2023/03/05 00:41:03;;;;;;;27.00;4.88;;;;;;;-1.04;100.00;100807.25;6210148;23;20036;-73
2023/03/05 00:43:29;;;;;;;30.27;5.55;;;;;;;-1.03;100.00;100808.09;6210558;23;20048;-73
2023/03/05 00:45:56;;;;;;;33.42;5.53;;;;;;;-1.09;100.00;100800.53;6210035;23;20091;-73
2023/03/05 00:48:22;;;;;;;26.45;3.92;;;;;;;-1.09;100.00;100793.50;6210414;23;20113;-73
2023/03/05 00:50:49;;;;;;;23.95;5.18;;;;;;;-1.08;100.00;100797.81;6209241;23;20021;-73
2023/03/05 00:53:15;;;;;;;29.38;5.68;;;;;;;-1.02;100.00;100797.50;6209958;23;20028;-72
2023/03/05 00:55:42;;;;;;;28.05;4.10;;;;;;;-1.09;100.00;100787.34;6201166;23;20020;-73
2023/03/05 00:58:08;;;;;;;30.27;4.65;;;;;;;-1.05;100.00;100783.66;6210965;23;20027;-73
2023/03/05 01:00:35;;;;;;;29.02;4.47;;;;;;;-0.98;100.00;100785.00;6209207;23;20023;-73
2023/03/05 01:03:02;;;;;;;26.33;4.90;;;;;;;-1.08;100.00;100782.03;6209054;23;20028;-71
2023/03/05 01:05:28;;;;;;;26.65;4.15;;;;;;;-1.11;100.00;100779.56;6209553;23;20484;-73
2023/03/05 01:07:56;;;;;;;28.30;3.95;;;;;;;-1.10;100.00;100775.13;6169279;23;20043;-73
2023/03/05 01:10:27;;;;;;;27.38;4.10;;;;;;;-1.18;100.00;100775.56;6209033;23;20029;-73
2023/03/05 01:12:55;;;;;;;17.10;3.22;;;;;;;-1.24;100.00;100768.00;6209855;23;20020;-73
2023/03/05 01:15:23;;;;;;;21.38;3.50;;;;;;;-1.24;100.00;100763.56;6209570;23;20465;-72
2023/03/05 01:17:49;;;;;;;21.77;3.42;;;;;;;-1.19;100.00;100765.97;6202498;23;20020;-73
2023/03/05 01:20:18;;;;;;;29.65;4.05;;;;;;;-1.19;100.00;100766.81;6208213;23;20029;-72
2023/03/05 01:22:45;;;;;;;23.20;3.35;;;;;;;-1.19;100.00;100771.25;6210098;23;20402;-72
2023/03/05 01:25:14;;;;;;;25.85;3.47;;;;;;;-1.11;100.00;100765.56;6155493;23;1283190;-73
2023/03/05 01:27:40;;;;;;;16.83;3.30;;;;;;;-1.21;100.00;100757.31;6211760;23;20353;-73
2023/03/05 01:30:08;;;;;;;17.73;2.75;;;;;;;-1.23;100.00;100764.41;6210999;23;20031;-72
2023/03/05 01:32:35;;;;;;;26.27;3.10;;;;;;;-1.21;100.00;100752.03;6210255;23;20076;-73
2023/03/05 01:35:04;;;;;;;27.60;3.17;;;;;;;-1.27;100.00;100747.94;6210164;23;20078;-72
2023/03/05 01:37:31;;;;;;;27.73;3.00;;;;;;;-1.39;100.00;100748.63;6210618;23;20025;-72
2023/03/05 01:39:57;;;;;;;18.88;2.80;;;;;;;-1.36;100.00;100751.09;6197140;23;20020;-73
2023/03/05 01:42:24;;;;;;;15.35;2.50;;;;;;;-1.41;100.00;100745.22;6209808;23;20031;-73
2023/03/05 01:45:13;;;;;;;21.30;2.88;;;;;;;-1.48;100.00;100743.84;6210329;23;20031;-72
2023/03/05 01:47:39;;;;;;;27.35;3.35;;;;;;;-1.54;100.00;100749.44;6210992;23;20023;-71
2023/03/05 01:50:10;;;;;;;21.27;3.15;;;;;;;-1.48;100.00;100739.44;6210948;23;20024;-72
2023/03/05 01:52:40;;;;;;;18.30;3.05;;;;;;;-1.56;100.00;100744.25;6210190;23;20021;-72
2023/03/05 01:55:20;;;;;;;17.98;2.88;;;;;;;-1.55;100.00;100745.94;6212403;23;20352;-73
2023/03/05 01:58:02;;;;;;;13.35;2.50;;;;;;;-1.52;100.00;100743.16;6212629;23;20031;-73
2023/03/05 02:00:30;;;;;;;;;;;;;;;-1.57;100.00;100747.84;6212008;23;20027;-72
2023/03/05 02:03:02;;;;;;;20.80;3.05;;;;;;;-1.59;100.00;100739.16;6211754;23;19916;-73
2023/03/05 02:09:15;;;;;;;18.83;2.92;;;;;;;-1.69;100.00;100743.22;6192831;23;20020;-73
2023/03/05 02:11:42;;;;;;;13.60;2.38;;;;;;;-1.60;100.00;100734.00;6213333;23;20027;-72
2023/03/05 02:14:09;;;;;;;15.77;2.67;;;;;;;-1.64;100.00;100738.56;6212885;23;20027;-73
2023/03/05 02:16:37;;;;;;;21.25;2.63;;;;;;;-1.60;100.00;100726.94;6211957;23;20075;-73
2023/03/05 02:19:09;;;;;;;31.30;2.83;;;;;;;-1.59;100.00;100720.75;6211324;23;20079;-73
2023/03/05 02:21:42;;;;;;;17.88;2.97;;;;;;;-1.59;100.00;100719.91;6211622;23;20099;-73
2023/03/05 02:24:14;;;;;;;24.98;3.08;;;;;;;-1.66;100.00;100717.59;6212662;23;20019;-73
2023/03/05 02:26:43;;;;;;;13.95;2.15;;;;;;;-1.66;100.00;100717.59;6211820;23;20449;-73
2023/03/05 02:29:16;;;;;;;12.20;1.77;;;;;;;-1.58;100.00;100717.19;6212230;23;20442;-73
2023/03/05 02:31:42;;;;;;;14.85;2.08;;;;;;;-1.63;100.00;100713.97;6212988;23;20027;-73
2023/03/05 02:34:09;;;;;;;18.77;1.83;;;;;;;-1.64;100.00;100712.28;6211902;23;20055;-73
2023/03/05 02:36:36;;;;;;;13.30;2.35;;;;;;;-1.68;100.00;100708.94;6211117;23;20119;-73
2023/03/05 02:39:03;;;;;;;17.48;2.33;;;;;;;-1.69;100.00;100715.13;6212410;23;20030;-73
2023/03/05 02:41:29;;;;;;;14.07;2.30;;;;;;;-1.69;100.00;100704.59;6210566;23;20024;-72
2023/03/05 02:43:56;;;;;;;14.50;2.10;;;;;;;-1.75;100.00;100690.94;6212009;23;20505;-72
2023/03/05 02:46:23;;;;;;;12.05;1.73;;;;;;;-1.83;100.00;100683.44;6211738;23;20537;-72
2023/03/05 02:48:49;;;;;;;20.33;2.45;;;;;;;-1.84;100.00;100684.38;6212838;23;20031;-72
2023/03/05 02:51:16;;;;;;;12.32;1.95;;;;;;;-1.77;100.00;100690.19;6213288;23;20473;-74
2023/03/05 02:53:42;;;;;;;16.80;2.05;;;;;;;-1.74;100.00;100682.97;6211568;23;20366;-72
2023/03/05 02:56:09;;;;;;;15.05;2.30;;;;;;;-1.71;100.00;100687.22;6210427;23;20021;-73
2023/03/05 02:58:35;;;;;;;12.00;1.95;;;;;;;-1.75;100.00;100685.66;6210662;23;20195;-73
2023/03/05 03:01:02;;;;;;;22.25;2.55;;;;;;;-1.79;100.00;100674.47;6204183;23;20036;-73
2023/03/05 03:03:29;;;;;;;14.23;2.08;;;;;;;-1.77;100.00;100683.13;6208664;23;20016;-73
2023/03/05 03:05:56;;;;;;;15.48;2.03;;;;;;;-1.82;100.00;100681.66;6211367;23;20343;-73
2023/03/05 03:08:22;;;;;;;18.42;2.65;;;;;;;-1.80;100.00;100671.94;6209791;23;20027;-72
2023/03/05 03:10:49;;;;;;;18.25;2.70;;;;;;;-1.84;100.00;100667.78;6210491;23;20022;-72
2023/03/05 03:13:15;;;;;;;16.80;2.00;;;;;;;-1.83;100.00;100669.47;6211621;23;20017;-71
2023/03/05 03:15:42;;;;;;;16.73;2.03;;;;;;;-1.83;100.00;100672.94;6211690;23;20021;-73
2023/03/05 03:18:09;;;;;;;6.60;1.90;;;;;;;-1.89;100.00;100665.38;6210297;23;20042;-72
2023/03/05 03:20:38;;;;;;;10.68;2.15;;;;;;;-1.87;100.00;100659.09;6201446;23;20044;-73
2023/03/05 03:23:05;;;;;;;8.13;1.95;;;;;;;-1.79;100.00;100660.47;6205585;23;20032;-73
2023/03/05 03:25:33;;;;;;;12.07;2.05;;;;;;;-1.79;100.00;100661.31;6209718;23;20087;-73
2023/03/05 03:27:59;;;;;;;12.35;2.20;;;;;;;-1.80;100.00;100654.38;6209788;23;20020;-72
2023/03/05 03:30:26;;;;;;;20.75;2.67;;;;;;;-1.79;100.00;100649.94;6198721;23;20025;-73
2023/03/05 03:32:52;;;;;;;12.38;1.48;;;;;;;-1.82;100.00;100642.22;6209869;23;20099;-72
2023/03/05 03:35:19;;;;;;;18.80;2.28;;;;;;;-1.93;100.00;100635.75;6210239;23;20020;-73
2023/03/05 03:37:46;;;;;;;17.90;2.40;;;;;;;-1.82;100.00;100644.84;6210971;23;20079;-72
2023/03/05 03:40:13;;;;;;;20.35;2.10;;;;;;;-1.89;100.00;100639.06;6210464;23;20031;-73
2023/03/05 03:42:39;;;;;;;8.45;1.73;;;;;;;-2.03;100.00;100637.19;6210475;23;20017;-73
2023/03/05 03:45:06;;;;;;;13.48;1.80;;;;;;;-2.04;100.00;100637.28;6208904;23;20020;-72
2023/03/05 03:47:33;;;;;;;13.25;2.28;;;;;;;-2.04;100.00;100642.53;6210916;23;20025;-73
2023/03/05 03:49:59;;;;;;;15.73;2.85;;;;;;;-2.04;100.00;100630.22;6210619;23;20449;-73
2023/03/05 03:52:26;;;;;;;14.98;1.58;;;;;;;-2.08;100.00;100628.69;6209764;23;20017;-72
2023/03/05 03:54:54;;;;;;;10.93;1.80;;;;;;;-2.05;100.00;100632.97;6211043;23;20044;-71
2023/03/05 03:57:21;;;;;;;12.85;2.15;;;;;;;-2.11;100.00;100634.13;6209686;23;20048;-72
2023/03/05 03:59:49;;;;;;;16.25;2.88;;;;;;;-2.15;100.00;100624.69;6209956;23;20027;-72
2023/03/05 04:02:15;;;;;;;12.27;2.80;;;;;;;-2.25;100.00;100620.84;6212334;23;20017;-72
2023/03/05 04:04:42;;;;;;;11.80;1.60;;;;;;;-2.22;100.00;100618.06;6212316;23;20028;-72
2023/03/05 04:07:09;;;;;;;13.85;2.38;;;;;;;-2.31;100.00;100618.53;6210233;23;20035;-73
2023/03/05 04:09:35;;;;;;;18.90;2.50;;;;;;;-2.37;100.00;100615.31;6211808;23;20021;-72
2023/03/05 04:12:02;;;;;;;13.55;1.92;;;;;;;-2.38;100.00;100616.22;6212395;23;20099;-72
2023/03/05 04:14:28;;;;;;;13.98;2.33;;;;;;;-2.43;100.00;100606.91;6197343;23;20024;-73
2023/03/05 04:16:55;;;;;;;10.68;2.22;;;;;;;-2.42;100.00;100609.44;6210982;23;20028;-72
2023/03/05 04:19:21;;;;;;;11.73;1.73;;;;;;;-2.48;100.00;100603.66;6210744;23;20021;-72
2023/03/05 04:21:48;;;;;;;10.05;1.58;;;;;;;-2.45;100.00;100598.25;6212912;23;20021;-72
2023/03/05 04:24:14;;;;;;;12.45;2.33;;;;;;;-2.47;100.00;100603.59;6212024;23;20105;-73
2023/03/05 04:26:41;;;;;;;15.82;1.90;;;;;;;-2.47;100.00;100597.50;6184644;23;20021;-72
2023/03/05 04:29:07;;;;;;;12.75;1.80;;;;;;;-2.47;100.00;100594.88;6211627;23;20042;-72
2023/03/05 04:31:34;;;;;;;10.52;1.90;;;;;;;-2.54;100.00;100606.63;6211624;23;20024;-72
2023/03/05 04:34:00;;;;;;;15.80;1.90;;;;;;;-2.52;100.00;100605.59;6211740;23;20075;-71
2023/03/05 04:36:26;;;;;;;10.48;1.90;;;;;;;-2.52;100.00;100596.88;6195436;23;20537;-73
2023/03/05 04:38:53;;;;;;;7.03;1.92;;;;;;;-2.55;100.00;100597.88;6212256;23;20023;-73
2023/03/05 04:41:19;;;;;;;16.00;2.25;;;;;;;-2.59;100.00;100591.09;6211683;23;20021;-71
2023/03/05 04:43:46;;;;;;;15.85;1.70;;;;;;;-2.59;100.00;100586.66;6212568;23;20027;-72
2023/03/05 04:46:12;;;;;;;12.73;2.35;;;;;;;-2.65;100.00;100592.25;6211497;23;20467;-72
2023/03/05 04:48:39;;;;;;;11.40;1.80;;;;;;;-2.58;100.00;100587.50;6210684;23;20109;-73
2023/03/05 04:51:06;;;;;;;12.55;1.90;;;;;;;-2.58;100.00;100590.13;6210961;23;20024;-72
2023/03/05 04:53:32;;;;;;;15.65;2.00;;;;;;;-2.67;100.00;100574.88;6211383;23;20025;-73
2023/03/05 04:56:00;;;;;;;12.85;2.35;;;;;;;-2.64;100.00;100587.84;6211196;23;20123;-73
2023/03/05 04:58:27;;;;;;;8.60;2.33;;;;;;;-2.66;100.00;100584.44;6211114;23;20016;-72
2023/03/05 05:00:53;;;;;;;13.27;1.80;;;;;;;-2.63;100.00;100590.38;6211106;23;20021;-71
2023/03/05 05:03:20;;;;;;;9.35;1.40;;;;;;;-2.68;100.00;100579.28;6211305;23;20017;-72
2023/03/05 05:05:53;;;;;;;12.82;1.95;;;;;;;-2.71;100.00;100586.47;6212850;23;20027;-73
2023/03/05 05:08:20;;;;;;;9.88;2.70;;;;;;;-2.75;100.00;100587.53;6211324;23;20021;-73
2023/03/05 05:10:55;;;;;;;19.50;2.13;;;;;;;-2.79;100.00;100580.75;6213261;23;20055;-72
2023/03/05 05:13:22;;;;;;;10.18;2.08;;;;;;;-2.82;100.00;100587.88;6210424;23;20021;-72
2023/03/05 05:15:49;;;;;;;13.25;1.85;;;;;;;-2.78;100.00;100592.97;6210472;23;20030;-72
2023/03/05 05:18:16;;;;;;;7.15;1.30;;;;;;;-2.79;100.00;100592.09;6212922;23;20073;-72
2023/03/05 05:20:42;;;;;;;18.60;2.20;;;;;;;-2.79;100.00;100583.38;6201895;23;20070;-72
2023/03/05 05:23:09;;;;;;;8.73;1.58;;;;;;;-2.79;100.00;100584.22;6211306;23;20322;-73
2023/03/05 05:25:36;;;;;;;11.88;1.83;;;;;;;-2.85;100.00;100580.16;6210647;23;20028;-72
2023/03/05 05:28:03;;;;;;;12.15;2.03;;;;;;;-2.80;100.00;100585.16;6209818;23;20088;-72
2023/03/05 05:30:29;;;;;;;12.77;2.08;;;;;;;-2.79;100.00;100581.59;6184573;23;20376;-72
2023/03/05 05:32:56;;;;;;;12.32;1.95;;;;;;;-2.77;100.00;100578.91;6210716;23;20099;-72
2023/03/05 05:35:22;;;;;;;14.18;1.85;;;;;;;-2.72;100.00;100577.75;6211828;23;20016;-73
2023/03/05 05:37:49;;;;;;;12.30;1.60;;;;;;;-2.72;100.00;100569.88;6213043;23;20355;-72
2023/03/05 05:40:16;;;;;;;19.05;2.05;;;;;;;-2.61;100.00;100585.06;6210629;23;20112;-73
2023/03/05 05:42:43;;;;;;;9.50;2.20;;;;;;;-2.68;100.00;100579.28;6212101;23;20108;-72
2023/03/05 05:45:11;;;;;;;7.13;1.60;;;;;;;-2.58;100.00;100583.13;6211868;23;20044;-72
2023/03/05 05:47:37;;;;;;;13.20;1.85;;;;;;;-2.62;100.00;100580.72;6210952;23;20445;-72
2023/03/05 05:50:04;;;;;;;11.60;2.03;;;;;;;-2.56;100.00;100585.66;6210893;23;20335;-72
2023/03/05 05:52:31;;;;;;;16.50;2.45;;;;;;;-2.58;100.00;100579.63;6210686;23;20530;-72
2023/03/05 05:54:57;;;;;;;15.60;2.33;;;;;;;-2.58;100.00;100583.13;6210129;23;20051;-72
2023/03/05 05:57:24;;;;;;;14.70;2.42;;;;;;;-2.53;100.00;100584.66;6210386;23;20091;-72
2023/03/05 05:59:50;;;;;;;11.82;1.88;;;;;;;-2.51;100.00;100588.94;6205153;23;20526;-72
2023/03/05 07:15:02;;;;;;;16.90;2.05;;;;;;;-1.84;100.00;100573.09;6182177;22;20013;-72
2023/03/05 07:17:29;;;;;;;7.30;1.48;;;;;;;-1.81;100.00;100568.53;6211935;23;20099;-72
2023/03/05 07:19:55;;;;;;;13.93;1.77;;;;;;;-1.71;100.00;100580.22;6185286;23;20024;-73
2023/03/05 07:22:21;;;;;;;9.45;2.35;;;;;;;-1.69;100.00;100577.50;6212700;23;20021;-72
2023/03/05 07:24:48;;;;;;;10.38;2.08;;;;;;;-1.72;100.00;100577.66;6211976;23;20024;-72
2023/03/05 07:27:14;;;;;;;14.38;1.88;;;;;;;-1.66;100.00;100577.34;6199872;23;20516;-73
2023/03/05 07:29:41;;;;;;;10.48;1.80;;;;;;;-1.68;100.00;100582.69;6211668;23;20031;-73
2023/03/05 07:32:07;;;;;;;11.05;1.95;;;;;;;-1.59;100.00;100583.94;6185029;23;20091;-73
2023/03/05 07:34:36;;;;;;;9.05;1.85;;;;;;;-1.67;100.00;100579.13;6185861;23;20079;-73
2023/03/05 07:37:02;;;;;;;9.45;2.08;;;;;;;-1.70;100.00;100581.91;6213232;23;20449;-73
2023/03/05 07:39:29;;;;;;;10.77;1.88;;;;;;;-1.63;100.00;100578.00;6212954;23;20040;-72
2023/03/05 07:41:55;;;;;;;11.32;1.75;;;;;;;-1.75;100.00;100572.56;6214433;23;20349;-73
2023/03/05 07:44:22;;;;;;;10.43;1.77;;;;;;;-1.64;100.00;100580.75;6215298;23;20024;-72
2023/03/05 07:46:48;;;;;;;8.02;1.88;;;;;;;-1.45;100.00;100573.50;6215213;23;20025;-73
2023/03/05 07:49:15;;;;;;;10.27;1.75;;;;;;;-1.40;100.00;100568.84;6215041;23;20051;-72
2023/03/05 07:51:41;;;;;;;8.20;1.98;;;;;;;-1.36;100.00;100574.78;6213653;23;20319;-73
2023/03/05 07:54:09;;;;;;;9.27;1.95;;;;;;;-1.40;100.00;100579.38;6213432;23;20029;-73
2023/03/05 07:56:36;;;;;;;10.50;1.63;;;;;;;-1.30;100.00;100573.56;6209701;23;20040;-73
2023/03/05 07:59:09;;;;;;;9.07;1.60;;;;;;;-1.19;100.00;100576.44;6212022;23;20371;-72
2023/03/05 08:01:36;;;;;;;10.90;2.03;;;;;;;-1.16;100.00;100570.97;6209485;23;20027;-73
2023/03/05 08:04:04;;;;;;;7.90;1.40;;;;;;;-1.11;100.00;100579.47;6210294;23;20028;-72
2023/03/05 08:06:30;;;;;;;8.93;2.20;;;;;;;-0.73;100.00;100571.13;6209469;23;20449;-72
2023/03/05 08:08:57;;;;;;;11.57;1.85;;;;;;;-0.38;100.00;100568.13;6210464;23;20087;-72
2023/03/05 08:11:24;;;;;;;7.72;1.60;;;;;;;0.10;100.00;100572.16;6212231;23;20031;-73
2023/03/05 08:13:51;;;;;;;13.57;2.30;;;;;;;0.04;100.00;100583.09;6211050;23;20040;-73
2023/03/05 08:16:20;;;;;;;13.75;1.58;;;;;;;0.42;100.00;100582.47;6210851;23;20030;-73
2023/03/05 08:18:47;;;;;;;13.75;2.08;;;;;;;0.40;100.00;100574.66;6211271;23;20023;-73
2023/03/05 08:21:29;;;;;;;12.88;1.75;;;;;;;0.80;100.00;100569.41;6209142;23;20029;-72
2023/03/05 08:23:57;;;;;;;8.32;1.85;;;;;;;1.21;99.73;100563.16;6210618;23;20441;-73
2023/03/05 08:26:25;;;;;;;6.70;1.75;;;;;;;1.43;96.11;100573.94;6211018;23;20021;-72
2023/03/05 08:28:52;;;;;;;7.95;1.67;;;;;;;1.25;97.80;100560.19;6211001;23;20020;-73
2023/03/05 08:31:22;;;;;;;6.97;1.38;;;;;;;0.83;97.09;100561.28;6210373;23;20024;-74
2023/03/05 08:33:51;;;;;;;18.50;4.63;;;;;;;1.00;96.85;100560.16;6210660;23;20024;-73
2023/03/05 08:36:18;;;;;;;8.52;2.20;;;;;;;0.89;96.00;100552.97;6211160;23;20028;-72
2023/03/05 08:38:47;;;;;;;10.55;2.50;;;;;;;1.56;86.59;100554.63;6209702;23;20099;-72
2023/03/05 08:41:15;;;;;;;11.35;2.40;;;;;;;1.56;85.40;100551.97;6211043;23;20067;-73
2023/03/05 08:43:42;;;;;;;9.15;1.63;;;;;;;1.05;86.05;100546.63;6210344;23;20044;-72
2023/03/05 08:46:11;;;;;;;10.60;1.75;;;;;;;1.01;89.36;100546.00;6211058;23;20398;-72
2023/03/05 08:48:38;;;;;;;7.78;1.35;;;;;;;0.95;88.54;100549.91;6209146;23;20021;-73
2023/03/05 08:51:10;;;;;;;18.38;1.80;;;;;;;0.85;87.62;100542.69;6210526;23;20024;-72
2023/03/05 08:53:36;;;;;;;14.15;1.63;;;;;;;0.68;86.32;100541.19;6218903;23;20053;-71
2023/03/05 08:56:03;;;;;;;9.98;1.80;;;;;;;0.37;87.47;100529.97;6239944;23;20012;-71
2023/03/05 08:58:30;;;;;;;8.38;1.50;;;;;;;0.41;87.50;100530.63;6224046;23;20037;-69
2023/03/05 09:00:56;;;;;;;9.45;1.73;;;;;;;0.40;89.72;100532.44;6239640;23;20020;-71
2023/03/05 09:03:23;;;;;;;5.22;1.70;;;;;;;0.43;90.33;100534.00;6215742;22;20047;-71
2023/03/05 09:05:50;;;;;;;10.50;2.28;;;;;;;0.69;88.38;100534.94;6215215;23;20056;-71
2023/03/05 09:08:17;;;;;;;5.80;1.42;;;;;;;0.62;89.10;100528.38;6238254;23;20081;-69
2023/03/05 09:10:45;;;;;;;13.57;2.10;;;;;;;0.44;88.87;100528.63;6238585;23;20016;-69
2023/03/05 09:13:12;;;;;;;10.27;1.80;;;;;;;0.51;88.82;100518.53;6239704;23;20005;-70
2023/03/05 09:15:38;;;;;;;8.82;2.03;;;;;;;0.42;90.17;100530.53;6212976;23;20040;-73
2023/03/05 09:18:07;;;;;;;7.95;2.05;;;;;;;0.48;90.20;100521.38;6210106;23;20028;-73
2023/03/05 09:20:35;;;;;;;18.05;2.80;;;;;;;0.27;91.78;100526.25;6211277;23;20017;-73
2023/03/05 09:23:02;;;;;;;8.93;4.07;;;;;;;0.19;94.16;100517.97;6211050;23;20088;-73
2023/03/05 09:25:29;;;;;;;21.55;7.40;;;;;;;0.03;92.65;100521.59;6212364;23;20096;-73
2023/03/05 09:27:55;;;;;;;19.02;4.45;;;;;;;-0.01;94.18;100521.88;6213942;23;20108;-73
2023/03/05 09:30:22;;;;;;;10.15;3.95;;;;;;;-0.15;93.80;100528.03;6213067;23;20047;-73
2023/03/05 09:32:49;;;;;;;17.90;2.85;;;;;;;-0.08;91.25;100523.22;6211537;23;20020;-73
2023/03/05 11:39:49;;;;;;;9.75;2.60;;;;;;;-0.22;100.00;100430.00;6139369;22;20028;31
2023/03/05 11:42:24;;;;;;;7.93;1.80;;;;;;;-0.17;100.00;100418.31;6148772;23;20028;-72
2023/03/05 11:44:54;;;;;;;9.48;2.00;;;;;;;0.40;100.00;100421.59;6150616;23;20379;-72
2023/03/05 11:47:41;;;;;;;8.88;2.42;;;;;;;0.43;100.00;100420.53;6149232;23;20108;-72
2023/03/05 11:50:19;;;;;;;11.35;2.40;;;;;;;0.36;100.00;100412.16;6150022;23;20049;-73
2023/03/05 11:52:56;;;;;;;11.73;1.95;;;;;;;0.18;100.00;100408.94;6150560;23;20096;-73
2023/03/05 11:55:38;;;;;;;11.60;2.15;;;;;;;0.05;100.00;100410.69;6150618;23;20024;-73
2023/03/05 11:58:33;;;;;;;10.43;2.17;;;;;;;0.09;100.00;100416.63;6150064;23;20100;-73
2023/03/05 12:01:00;;;;;;;9.35;2.13;;;;;;;-0.23;100.00;100420.41;6149880;23;20092;-71
2023/03/05 12:03:32;;;;;;;8.18;1.48;;;;;;;-0.44;100.00;100417.34;6151433;23;20104;-72
2023/03/05 12:06:16;;;;;;;10.77;2.13;;;;;;;-0.55;100.00;100417.16;6149582;23;20072;-71
2023/03/05 12:08:47;;;;;;;7.60;1.90;;;;;;;-0.63;100.00;100419.44;6125352;23;20028;-73
2023/03/05 12:11:24;;;;;;;10.73;2.28;;;;;;;-0.69;100.00;100411.91;6124792;23;20104;-73
2023/03/05 12:13:55;;;;;;;8.43;2.20;;;;;;;-0.45;100.00;100404.28;6148650;23;20116;-73
2023/03/05 12:16:42;;;;;;;10.98;1.92;;;;;;;-0.04;100.00;100398.97;6148296;23;20096;-73
2023/03/05 12:19:46;;;;;;;4.95;2.05;;;;;;;0.73;100.00;100392.06;6150554;23;20025;-73
2023/03/05 12:22:22;;;;;;;10.82;1.95;;;;;;;2.67;100.00;100382.41;6150544;23;20049;-73
2023/03/05 12:24:50;;;;;;;5.72;1.63;;;;;;;2.66;100.00;100377.25;6149723;23;21688;-73
2023/03/05 12:27:38;;;;;;;9.27;3.20;;;;;;;2.27;99.62;100379.31;6149397;23;20411;-73
2023/03/05 12:30:34;;;;;;;8.45;3.10;;;;;;;2.46;96.41;100375.25;6149725;23;20021;-72
2023/03/05 12:33:02;;;;;;;5.45;1.70;;;;;;;1.93;95.77;100365.09;6149798;23;20021;-73
2023/03/05 12:35:37;;;;;;;6.22;1.75;;;;;;;1.89;93.79;100366.25;6150999;23;20324;-71
2023/03/05 12:38:17;;;;;;;6.75;2.05;;;;;;;1.44;99.25;100363.34;6150086;23;20029;-73
2023/03/05 12:40:52;;;;;;;7.82;2.30;;;;;;;1.58;96.79;100370.28;6149148;23;20097;-73
2023/03/05 12:52:20;;;;;;;8.93;1.77;;;;;;;0.93;100.00;100364.28;6189633;22;20060;-71
2023/03/05 12:54:59;;;;;;;8.07;1.92;;;;;;;0.91;100.00;100355.59;6240356;23;20012;-71
2023/03/05 12:57:28;;;;;;;4.70;1.50;;;;;;;0.74;100.00;100359.41;6240634;23;20024;-72
2023/03/05 13:00:05;;;;;;;6.63;1.77;;;;;;;0.50;100.00;100356.69;6241523;23;20008;-72
2023/03/05 13:02:36;;;;;;;10.88;1.92;;;;;;;0.66;100.00;100355.63;6240667;23;20064;-71
2023/03/05 13:05:30;;;;;;;6.88;2.20;;;;;;;0.59;100.00;100363.13;6242093;23;20005;-71
2023/03/05 13:08:20;;;;;;;9.50;2.78;;;;;;;0.66;100.00;100353.81;6241834;23;20014;-72
2023/03/05 13:11:19;;;;;;;9.35;2.30;;;;;;;1.03;100.00;100348.63;6241196;23;20024;-72
2023/03/05 13:13:47;;;;;;;8.73;2.03;;;;;;;1.57;100.00;100355.34;6230123;23;20016;-71
2023/03/05 13:16:18;;;;;;;6.28;2.00;;;;;;;1.40;100.00;100353.94;6241354;23;20012;-72
2023/03/05 13:18:47;;;;;;;6.38;1.92;;;;;;;1.15;100.00;100352.19;6241053;23;20077;-71
2023/03/05 13:21:19;;;;;;;7.00;1.98;;;;;;;0.95;100.00;100343.91;6241370;23;20013;-71
2023/03/05 13:23:56;;;;;;;7.80;1.98;;;;;;;0.75;100.00;100339.16;6240780;23;20035;-71
2023/03/05 13:32:02;;;;;;;6.65;2.40;;;;;;;0.55;100.00;100332.59;6226319;22;20000;-71
2023/03/05 13:34:38;;;;;;;7.30;2.55;;;;;;;0.68;100.00;100335.25;6240253;23;20056;-71
2023/03/05 13:37:22;;;;;;;7.95;1.80;;;;;;;0.78;100.00;100328.38;6241043;23;20008;-72
2023/03/05 13:40:00;;;;;;;14.93;3.55;;;;;;;0.76;100.00;100327.63;6240385;23;20020;-72
2023/03/05 13:42:27;;;;;;;10.45;2.78;;;;;;;0.76;100.00;100327.63;6240899;23;20012;-71
2023/03/05 13:44:59;;;;;;;6.18;1.42;;;;;;;0.58;100.00;100326.28;6241717;23;20036;-71
2023/03/05 13:47:31;;;;;;;9.50;1.83;;;;;;;0.60;100.00;100329.63;6241659;23;20017;-71
2023/03/05 13:50:06;;;;;;;11.00;2.30;;;;;;;0.77;100.00;100326.66;6240920;23;20005;-70
2023/03/05 13:52:36;;;;;;;3.92;1.73;;;;;;;0.88;100.00;100334.69;6241168;23;20008;-70
2023/03/05 13:55:11;;;;;;;5.88;1.50;;;;;;;0.85;99.83;100324.38;6214837;23;20031;-70
2023/03/05 13:57:42;;;;;;;12.15;1.55;;;;;;;0.91;97.22;100318.63;6240631;23;20008;-70
2023/03/05 14:00:35;;;;;;;5.85;1.48;;;;;;;0.60;95.14;100316.44;6240132;23;20012;-70
2023/03/05 14:03:20;;;;;;;9.95;1.95;;;;;;;0.55;94.83;100329.13;6241376;23;20016;-71
2023/03/05 14:05:47;;;;;;;7.03;1.50;;;;;;;0.77;94.38;100324.88;6241165;23;20019;-70
2023/03/05 14:08:25;;;;;;;14.00;2.08;;;;;;;0.85;94.26;100329.66;6241557;23;20015;-71
2023/03/05 14:10:52;;;;;;;8.02;1.70;;;;;;;0.49;93.52;100325.94;6241491;23;20020;-71
2023/03/05 14:13:22;;;;;;;13.30;2.15;;;;;;;0.55;91.18;100319.41;6241703;23;20016;-70
2023/03/05 14:16:09;;;;;;;28.80;6.50;;;;;;;0.40;92.73;100331.00;6241124;23;20032;-71
2023/03/05 14:18:37;;;;;;;11.65;1.50;;;;;;;0.30;98.39;100328.16;6240778;23;20019;-71
2023/03/05 14:21:04;;;;;;;9.15;1.98;;;;;;;0.24;100.00;100329.41;6239664;23;20008;-71
2023/03/05 14:23:30;;;;;;;15.55;1.60;;;;;;;0.13;100.00;100320.53;6240023;23;20009;-70
2023/03/05 14:43:44;;;;;;;4.57;1.30;;;;;;;-0.13;100.00;100307.28;6158420;22;20064;-72
2023/03/05 14:46:10;;;;;;;3.38;1.10;;;;;;;-0.17;100.00;100302.31;6209036;23;20021;-72
2023/03/05 14:48:38;;;;;;;5.32;1.30;;;;;;;-0.12;100.00;100301.06;6209362;23;20025;-72
2023/03/05 14:51:06;;;;;;;8.95;1.40;;;;;;;-0.04;100.00;100301.41;6193599;23;20533;-71
2023/03/05 14:53:44;;;;;;;11.40;2.10;;;;;;;-0.14;100.00;100287.13;6210330;23;20016;-73
2023/03/05 14:56:21;;;;;;;10.98;3.58;;;;;;;-0.12;100.00;100294.94;6209787;23;20020;-72
2023/03/05 14:58:48;;;;;;;9.75;2.67;;;;;;;-0.30;100.00;100297.00;6182986;23;20047;-72
2023/03/05 15:01:15;;;;;;;7.55;2.03;;;;;;;-0.24;100.00;100296.59;6209581;23;20031;-72
2023/03/05 15:03:41;;;;;;;11.73;4.35;;;;;;;-0.14;100.00;100286.31;6209322;23;20021;-73
2023/03/05 15:06:17;;;;;;;11.23;2.10;;;;;;;-0.17;100.00;100289.13;6209427;23;20025;-72
2023/03/05 15:08:44;;;;;;;6.47;1.23;;;;;;;-0.10;100.00;100272.81;6209735;23;20520;-72
2023/03/05 15:11:10;;;;;;;9.25;1.60;;;;;;;-0.07;100.00;100279.66;6208808;23;20370;-72
2023/03/05 15:13:37;;;;;;;3.10;1.40;;;;;;;-0.26;100.00;100278.28;6210219;23;20087;-72
2023/03/05 15:16:05;;;;;;;4.50;1.38;;;;;;;-0.12;100.00;100269.44;6210445;23;20331;-72
2023/03/05 15:18:32;;;;;;;6.60;1.67;;;;;;;-0.19;100.00;100276.06;6210756;23;20027;-73
2023/03/05 15:20:58;;;;;;;6.32;1.50;;;;;;;-0.47;100.00;100269.13;6209057;23;20021;-73